sensor_id;sensor_type;location;lat;lon;timestamp;P1;durP1;ratioP1;P2;durP2;ratioP2
70818;SDS011;58439;51.046;13.692;2022-09-03T00:00:09;4.10;;;2.20;;
70818;SDS011;58439;51.046;13.692;2022-09-03T00:02:46;7.18;;;2.80;;
70818;SDS011;58439;51.046;13.692;2022-09-03T00:05:46;5.50;;;2.65;;
70818;SDS011;58439;51.046;13.692;2022-09-03T00:08:32;6.50;;;2.50;;
70818;SDS011;58439;51.046;13.692;2022-09-03T00:11:34;8.18;;;2.50;;
70818;SDS011;58439;51.046;13.692;2022-09-03T00:14:23;3.65;;;2.28;;
70818;SDS011;58439;51.046;13.692;2022-09-03T00:17:01;5.32;;;2.50;;
70818;SDS011;58439;51.046;13.692;2022-09-03T00:19:59;4.22;;;2.50;;
70818;SDS011;58439;51.046;13.692;2022-09-03T00:22:38;5.63;;;2.50;;
70818;SDS011;58439;51.046;13.692;2022-09-03T00:25:14;4.78;;;2.38;;
70818;SDS011;58439;51.046;13.692;2022-09-03T00:27:53;4.88;;;2.40;;
70818;SDS011;58439;51.046;13.692;2022-09-03T00:30:23;4.70;;;2.55;;
70818;SDS011;58439;51.046;13.692;2022-09-03T00:35:49;7.22;;;2.67;;
70818;SDS011;58439;51.046;13.692;2022-09-03T00:38:29;4.43;;;2.53;;
70818;SDS011;58439;51.046;13.692;2022-09-03T00:47:19;6.55;;;3.05;;
70818;SDS011;58439;51.046;13.692;2022-09-03T00:50:14;8.93;;;3.78;;
70818;SDS011;58439;51.046;13.692;2022-09-03T00:53:09;5.55;;;2.92;;
70818;SDS011;58439;51.046;13.692;2022-09-03T00:56:03;7.00;;;2.83;;
70818;SDS011;58439;51.046;13.692;2022-09-03T01:11:50;6.18;;;2.75;;
70818;SDS011;58439;51.046;13.692;2022-09-03T01:14:42;5.22;;;2.75;;
70818;SDS011;58439;51.046;13.692;2022-09-03T01:29:58;6.03;;;2.83;;
70818;SDS011;58439;51.046;13.692;2022-09-03T01:50:42;5.72;;;2.92;;
70818;SDS011;58439;51.046;13.692;2022-09-03T01:56:41;5.60;;;2.97;;
70818;SDS011;58439;51.046;13.692;2022-09-03T02:02:39;6.32;;;3.08;;
70818;SDS011;58439;51.046;13.692;2022-09-03T02:05:16;4.40;;;2.85;;
70818;SDS011;58439;51.046;13.692;2022-09-03T02:07:59;5.53;;;2.75;;
70818;SDS011;58439;51.046;13.692;2022-09-03T02:10:40;8.35;;;3.25;;
70818;SDS011;58439;51.046;13.692;2022-09-03T02:15:57;8.68;;;3.10;;
70818;SDS011;58439;51.046;13.692;2022-09-03T02:18:29;6.05;;;3.20;;
70818;SDS011;58439;51.046;13.692;2022-09-03T02:21:04;7.07;;;3.03;;
70818;SDS011;58439;51.046;13.692;2022-09-03T02:23:32;6.28;;;2.65;;
70818;SDS011;58439;51.046;13.692;2022-09-03T02:26:09;4.25;;;2.50;;
70818;SDS011;58439;51.046;13.692;2022-09-03T02:31:07;6.18;;;2.88;;
70818;SDS011;58439;51.046;13.692;2022-09-03T02:33:38;3.78;;;2.60;;
70818;SDS011;58439;51.046;13.692;2022-09-03T02:36:11;4.30;;;2.55;;
70818;SDS011;58439;51.046;13.692;2022-09-03T02:38:43;4.00;;;2.42;;
70818;SDS011;58439;51.046;13.692;2022-09-03T02:41:12;4.45;;;2.53;;
70818;SDS011;58439;51.046;13.692;2022-09-03T02:43:50;6.38;;;2.90;;
70818;SDS011;58439;51.046;13.692;2022-09-03T02:46:45;7.10;;;2.63;;
70818;SDS011;58439;51.046;13.692;2022-09-03T02:49:22;7.22;;;2.70;;
70818;SDS011;58439;51.046;13.692;2022-09-03T02:51:49;10.00;;;4.10;;
70818;SDS011;58439;51.046;13.692;2022-09-03T02:54:16;8.25;;;3.95;;
70818;SDS011;58439;51.046;13.692;2022-09-03T02:56:46;12.13;;;4.32;;
70818;SDS011;58439;51.046;13.692;2022-09-03T02:59:15;9.77;;;3.40;;
70818;SDS011;58439;51.046;13.692;2022-09-03T03:01:43;9.60;;;3.42;;
70818;SDS011;58439;51.046;13.692;2022-09-03T03:04:12;8.73;;;3.35;;
70818;SDS011;58439;51.046;13.692;2022-09-03T03:06:40;9.75;;;3.50;;
70818;SDS011;58439;51.046;13.692;2022-09-03T03:09:07;10.10;;;3.72;;
70818;SDS011;58439;51.046;13.692;2022-09-03T03:11:34;9.10;;;2.75;;
70818;SDS011;58439;51.046;13.692;2022-09-03T03:14:02;6.80;;;3.38;;
70818;SDS011;58439;51.046;13.692;2022-09-03T03:16:29;7.03;;;3.58;;
70818;SDS011;58439;51.046;13.692;2022-09-03T03:18:56;5.97;;;3.05;;
70818;SDS011;58439;51.046;13.692;2022-09-03T03:21:25;4.68;;;2.72;;
70818;SDS011;58439;51.046;13.692;2022-09-03T03:23:52;6.38;;;3.15;;
70818;SDS011;58439;51.046;13.692;2022-09-03T03:26:19;5.80;;;2.80;;
70818;SDS011;58439;51.046;13.692;2022-09-03T03:28:49;6.25;;;3.30;;
70818;SDS011;58439;51.046;13.692;2022-09-03T03:31:26;6.38;;;2.80;;
70818;SDS011;58439;51.046;13.692;2022-09-03T03:33:54;8.30;;;3.55;;
70818;SDS011;58439;51.046;13.692;2022-09-03T03:36:25;5.03;;;2.72;;
70818;SDS011;58439;51.046;13.692;2022-09-03T03:38:59;6.72;;;3.05;;
70818;SDS011;58439;51.046;13.692;2022-09-03T03:41:28;4.07;;;2.53;;
70818;SDS011;58439;51.046;13.692;2022-09-03T03:44:03;9.95;;;3.42;;
70818;SDS011;58439;51.046;13.692;2022-09-03T03:46:34;5.75;;;2.85;;
70818;SDS011;58439;51.046;13.692;2022-09-03T03:49:04;4.82;;;2.70;;
70818;SDS011;58439;51.046;13.692;2022-09-03T03:51:34;6.10;;;2.90;;
70818;SDS011;58439;51.046;13.692;2022-09-03T03:54:03;5.28;;;2.78;;
70818;SDS011;58439;51.046;13.692;2022-09-03T03:56:31;6.50;;;2.97;;
70818;SDS011;58439;51.046;13.692;2022-09-03T03:59:00;5.63;;;3.22;;
70818;SDS011;58439;51.046;13.692;2022-09-03T04:01:27;5.93;;;2.63;;
70818;SDS011;58439;51.046;13.692;2022-09-03T04:03:56;4.60;;;2.42;;
70818;SDS011;58439;51.046;13.692;2022-09-03T04:06:25;5.60;;;3.10;;
70818;SDS011;58439;51.046;13.692;2022-09-03T04:08:53;7.75;;;2.67;;
70818;SDS011;58439;51.046;13.692;2022-09-03T04:11:21;7.35;;;2.70;;
70818;SDS011;58439;51.046;13.692;2022-09-03T04:13:52;4.60;;;2.33;;
70818;SDS011;58439;51.046;13.692;2022-09-03T04:16:21;4.72;;;2.65;;
70818;SDS011;58439;51.046;13.692;2022-09-03T04:18:52;9.15;;;2.60;;
70818;SDS011;58439;51.046;13.692;2022-09-03T04:21:22;4.32;;;2.40;;
70818;SDS011;58439;51.046;13.692;2022-09-03T04:23:56;5.28;;;2.58;;
70818;SDS011;58439;51.046;13.692;2022-09-03T04:26:28;3.92;;;2.40;;
70818;SDS011;58439;51.046;13.692;2022-09-03T04:28:57;5.65;;;2.40;;
70818;SDS011;58439;51.046;13.692;2022-09-03T04:31:31;5.88;;;3.10;;
70818;SDS011;58439;51.046;13.692;2022-09-03T04:34:00;5.15;;;2.80;;
70818;SDS011;58439;51.046;13.692;2022-09-03T04:36:30;6.75;;;3.05;;
70818;SDS011;58439;51.046;13.692;2022-09-03T04:38:58;6.30;;;2.90;;
70818;SDS011;58439;51.046;13.692;2022-09-03T04:41:30;7.68;;;3.67;;
70818;SDS011;58439;51.046;13.692;2022-09-03T04:43:59;6.38;;;2.95;;
70818;SDS011;58439;51.046;13.692;2022-09-03T04:46:26;5.22;;;2.47;;
70818;SDS011;58439;51.046;13.692;2022-09-03T04:48:59;5.95;;;2.15;;
70818;SDS011;58439;51.046;13.692;2022-09-03T04:51:28;5.82;;;2.30;;
70818;SDS011;58439;51.046;13.692;2022-09-03T04:53:57;6.30;;;2.53;;
70818;SDS011;58439;51.046;13.692;2022-09-03T04:56:32;7.63;;;2.40;;
70818;SDS011;58439;51.046;13.692;2022-09-03T04:59:03;4.25;;;2.75;;
70818;SDS011;58439;51.046;13.692;2022-09-03T05:01:35;3.83;;;2.30;;
70818;SDS011;58439;51.046;13.692;2022-09-03T05:04:05;8.63;;;2.85;;
70818;SDS011;58439;51.046;13.692;2022-09-03T05:06:33;4.95;;;2.60;;
70818;SDS011;58439;51.046;13.692;2022-09-03T05:09:02;5.00;;;2.70;;
70818;SDS011;58439;51.046;13.692;2022-09-03T05:11:31;3.95;;;2.70;;
70818;SDS011;58439;51.046;13.692;2022-09-03T05:13:58;5.55;;;2.60;;
70818;SDS011;58439;51.046;13.692;2022-09-03T05:16:26;4.10;;;2.40;;
70818;SDS011;58439;51.046;13.692;2022-09-03T05:18:57;4.25;;;2.35;;
70818;SDS011;58439;51.046;13.692;2022-09-03T05:21:26;8.65;;;2.22;;
70818;SDS011;58439;51.046;13.692;2022-09-03T05:23:55;5.50;;;2.60;;
70818;SDS011;58439;51.046;13.692;2022-09-03T05:26:27;3.70;;;2.00;;
70818;SDS011;58439;51.046;13.692;2022-09-03T05:28:58;5.57;;;2.60;;
70818;SDS011;58439;51.046;13.692;2022-09-03T05:31:28;2.90;;;2.00;;
70818;SDS011;58439;51.046;13.692;2022-09-03T05:33:58;3.85;;;2.20;;
70818;SDS011;58439;51.046;13.692;2022-09-03T05:36:32;7.03;;;3.10;;
70818;SDS011;58439;51.046;13.692;2022-09-03T05:39:03;6.22;;;2.45;;
70818;SDS011;58439;51.046;13.692;2022-09-03T05:41:31;3.88;;;2.17;;
70818;SDS011;58439;51.046;13.692;2022-09-03T05:43:59;4.88;;;2.33;;
70818;SDS011;58439;51.046;13.692;2022-09-03T05:46:31;4.30;;;2.63;;
70818;SDS011;58439;51.046;13.692;2022-09-03T05:49:00;3.67;;;2.10;;
70818;SDS011;58439;51.046;13.692;2022-09-03T05:51:29;2.55;;;2.00;;
70818;SDS011;58439;51.046;13.692;2022-09-03T05:53:58;3.97;;;2.30;;
70818;SDS011;58439;51.046;13.692;2022-09-03T05:56:27;4.38;;;2.30;;
70818;SDS011;58439;51.046;13.692;2022-09-03T05:58:57;5.75;;;2.33;;
70818;SDS011;58439;51.046;13.692;2022-09-03T06:01:28;5.93;;;2.38;;
70818;SDS011;58439;51.046;13.692;2022-09-03T06:04:05;4.65;;;2.13;;
70818;SDS011;58439;51.046;13.692;2022-09-03T06:06:39;3.28;;;2.10;;
70818;SDS011;58439;51.046;13.692;2022-09-03T06:09:10;3.60;;;1.80;;
70818;SDS011;58439;51.046;13.692;2022-09-03T06:11:41;6.60;;;2.20;;
70818;SDS011;58439;51.046;13.692;2022-09-03T06:14:12;4.13;;;2.15;;
70818;SDS011;58439;51.046;13.692;2022-09-03T06:16:41;5.38;;;2.05;;
70818;SDS011;58439;51.046;13.692;2022-09-03T06:19:18;6.32;;;1.95;;
70818;SDS011;58439;51.046;13.692;2022-09-03T06:21:46;3.13;;;1.75;;
70818;SDS011;58439;51.046;13.692;2022-09-03T06:24:16;4.93;;;2.03;;
70818;SDS011;58439;51.046;13.692;2022-09-03T06:26:51;5.40;;;1.90;;
70818;SDS011;58439;51.046;13.692;2022-09-03T06:29:19;2.50;;;1.73;;
70818;SDS011;58439;51.046;13.692;2022-09-03T06:31:46;5.55;;;2.00;;
70818;SDS011;58439;51.046;13.692;2022-09-03T06:34:14;5.55;;;1.90;;
70818;SDS011;58439;51.046;13.692;2022-09-03T06:36:44;2.83;;;1.50;;
70818;SDS011;58439;51.046;13.692;2022-09-03T06:39:11;4.78;;;1.73;;
70818;SDS011;58439;51.046;13.692;2022-09-03T06:41:38;3.28;;;1.80;;
70818;SDS011;58439;51.046;13.692;2022-09-03T06:44:06;3.90;;;1.70;;
70818;SDS011;58439;51.046;13.692;2022-09-03T06:46:38;3.15;;;1.80;;
70818;SDS011;58439;51.046;13.692;2022-09-03T06:49:10;2.67;;;1.65;;
70818;SDS011;58439;51.046;13.692;2022-09-03T06:51:40;3.03;;;1.30;;
70818;SDS011;58439;51.046;13.692;2022-09-03T06:54:09;2.88;;;1.60;;
70818;SDS011;58439;51.046;13.692;2022-09-03T06:56:38;5.32;;;1.85;;
70818;SDS011;58439;51.046;13.692;2022-09-03T06:59:08;3.05;;;1.50;;
70818;SDS011;58439;51.046;13.692;2022-09-03T07:01:38;3.50;;;1.52;;
70818;SDS011;58439;51.046;13.692;2022-09-03T07:04:10;4.70;;;1.63;;
70818;SDS011;58439;51.046;13.692;2022-09-03T07:06:41;4.78;;;1.40;;
70818;SDS011;58439;51.046;13.692;2022-09-03T07:09:10;3.35;;;1.70;;
70818;SDS011;58439;51.046;13.692;2022-09-03T07:11:38;3.83;;;1.60;;
70818;SDS011;58439;51.046;13.692;2022-09-03T07:14:14;2.42;;;1.33;;
70818;SDS011;58439;51.046;13.692;2022-09-03T07:16:44;3.67;;;1.70;;
70818;SDS011;58439;51.046;13.692;2022-09-03T07:19:13;1.95;;;1.30;;
70818;SDS011;58439;51.046;13.692;2022-09-03T07:21:41;6.38;;;1.40;;
70818;SDS011;58439;51.046;13.692;2022-09-03T07:24:15;4.60;;;1.60;;
70818;SDS011;58439;51.046;13.692;2022-09-03T07:26:43;5.03;;;1.42;;
70818;SDS011;58439;51.046;13.692;2022-09-03T07:29:13;4.35;;;1.30;;
70818;SDS011;58439;51.046;13.692;2022-09-03T07:31:46;3.15;;;1.35;;
70818;SDS011;58439;51.046;13.692;2022-09-03T07:34:19;3.67;;;1.48;;
70818;SDS011;58439;51.046;13.692;2022-09-03T07:39:20;3.03;;;1.45;;
70818;SDS011;58439;51.046;13.692;2022-09-03T07:41:47;5.97;;;1.58;;
70818;SDS011;58439;51.046;13.692;2022-09-03T07:44:15;3.85;;;1.17;;
70818;SDS011;58439;51.046;13.692;2022-09-03T07:46:49;3.53;;;1.60;;
70818;SDS011;58439;51.046;13.692;2022-09-03T07:49:19;3.78;;;1.52;;
70818;SDS011;58439;51.046;13.692;2022-09-03T07:51:47;2.85;;;1.50;;
70818;SDS011;58439;51.046;13.692;2022-09-03T07:54:20;3.38;;;1.23;;
70818;SDS011;58439;51.046;13.692;2022-09-03T07:56:48;5.63;;;1.60;;
70818;SDS011;58439;51.046;13.692;2022-09-03T07:59:15;2.65;;;1.35;;
70818;SDS011;58439;51.046;13.692;2022-09-03T08:01:43;2.45;;;1.38;;
70818;SDS011;58439;51.046;13.692;2022-09-03T08:04:10;7.60;;;1.23;;
70818;SDS011;58439;51.046;13.692;2022-09-03T08:06:40;2.35;;;1.02;;
70818;SDS011;58439;51.046;13.692;2022-09-03T08:09:08;4.03;;;1.40;;
70818;SDS011;58439;51.046;13.692;2022-09-03T08:11:40;2.15;;;1.20;;
70818;SDS011;58439;51.046;13.692;2022-09-03T08:14:16;2.35;;;1.33;;
70818;SDS011;58439;51.046;13.692;2022-09-03T08:16:45;3.33;;;1.35;;
70818;SDS011;58439;51.046;13.692;2022-09-03T08:19:13;3.88;;;1.40;;
70818;SDS011;58439;51.046;13.692;2022-09-03T08:24:15;5.00;;;1.15;;
70818;SDS011;58439;51.046;13.692;2022-09-03T08:26:46;4.88;;;1.15;;
70818;SDS011;58439;51.046;13.692;2022-09-03T08:29:18;2.43;;;1.20;;
70818;SDS011;58439;51.046;13.692;2022-09-03T08:31:46;3.05;;;1.48;;
70818;SDS011;58439;51.046;13.692;2022-09-03T08:34:14;2.50;;;1.10;;
70818;SDS011;58439;51.046;13.692;2022-09-03T08:36:43;4.18;;;1.40;;
70818;SDS011;58439;51.046;13.692;2022-09-03T08:39:13;4.05;;;1.33;;
70818;SDS011;58439;51.046;13.692;2022-09-03T08:44:49;5.63;;;1.50;;
70818;SDS011;58439;51.046;13.692;2022-09-03T08:50:07;4.85;;;1.45;;
70818;SDS011;58439;51.046;13.692;2022-09-03T08:52:49;2.35;;;1.20;;
70818;SDS011;58439;51.046;13.692;2022-09-03T08:55:52;4.03;;;1.40;;
70818;SDS011;58439;51.046;13.692;2022-09-03T08:58:32;4.07;;;1.40;;
70818;SDS011;58439;51.046;13.692;2022-09-03T09:19:22;3.47;;;1.45;;
70818;SDS011;58439;51.046;13.692;2022-09-03T09:21:52;3.58;;;1.30;;
70818;SDS011;58439;51.046;13.692;2022-09-03T09:24:30;2.67;;;1.30;;
70818;SDS011;58439;51.046;13.692;2022-09-03T09:27:05;2.45;;;1.42;;
70818;SDS011;58439;51.046;13.692;2022-09-03T09:29:38;2.25;;;1.20;;
70818;SDS011;58439;51.046;13.692;2022-09-03T09:32:06;3.47;;;1.50;;
70818;SDS011;58439;51.046;13.692;2022-09-03T09:34:38;5.80;;;1.52;;
70818;SDS011;58439;51.046;13.692;2022-09-03T09:37:08;4.82;;;1.55;;
70818;SDS011;58439;51.046;13.692;2022-09-03T09:39:39;3.60;;;1.48;;
70818;SDS011;58439;51.046;13.692;2022-09-03T09:42:21;3.33;;;1.40;;
70818;SDS011;58439;51.046;13.692;2022-09-03T09:44:50;5.13;;;1.40;;
70818;SDS011;58439;51.046;13.692;2022-09-03T09:47:22;4.55;;;1.45;;
70818;SDS011;58439;51.046;13.692;2022-09-03T09:49:57;2.50;;;1.50;;
70818;SDS011;58439;51.046;13.692;2022-09-03T09:52:30;6.55;;;1.55;;
70818;SDS011;58439;51.046;13.692;2022-09-03T09:55:07;2.55;;;1.20;;
70818;SDS011;58439;51.046;13.692;2022-09-03T09:57:41;3.03;;;1.23;;
70818;SDS011;58439;51.046;13.692;2022-09-03T10:00:13;3.75;;;1.60;;
70818;SDS011;58439;51.046;13.692;2022-09-03T10:02:49;4.60;;;1.40;;
70818;SDS011;58439;51.046;13.692;2022-09-03T10:05:21;2.53;;;1.20;;
70818;SDS011;58439;51.046;13.692;2022-09-03T10:07:56;4.40;;;1.63;;
70818;SDS011;58439;51.046;13.692;2022-09-03T10:10:41;4.18;;;1.85;;
70818;SDS011;58439;51.046;13.692;2022-09-03T10:13:19;3.42;;;1.27;;
70818;SDS011;58439;51.046;13.692;2022-09-03T10:16:03;3.47;;;1.33;;
70818;SDS011;58439;51.046;13.692;2022-09-03T10:18:45;5.32;;;1.52;;
70818;SDS011;58439;51.046;13.692;2022-09-03T10:21:40;3.47;;;1.83;;
70818;SDS011;58439;51.046;13.692;2022-09-03T10:24:56;4.13;;;1.27;;
70818;SDS011;58439;51.046;13.692;2022-09-03T10:27:28;3.63;;;1.30;;
70818;SDS011;58439;51.046;13.692;2022-09-03T10:29:58;5.20;;;1.50;;
70818;SDS011;58439;51.046;13.692;2022-09-03T10:35:31;2.95;;;1.30;;
70818;SDS011;58439;51.046;13.692;2022-09-03T10:43:51;4.50;;;1.40;;
70818;SDS011;58439;51.046;13.692;2022-09-03T10:50:09;3.58;;;1.55;;
70818;SDS011;58439;51.046;13.692;2022-09-03T10:58:34;3.17;;;1.35;;
70818;SDS011;58439;51.046;13.692;2022-09-03T11:01:26;4.13;;;1.30;;
70818;SDS011;58439;51.046;13.692;2022-09-03T11:04:49;4.45;;;1.13;;
70818;SDS011;58439;51.046;13.692;2022-09-03T11:07:30;6.10;;;1.42;;
70818;SDS011;58439;51.046;13.692;2022-09-03T11:10:48;2.28;;;1.23;;
70818;SDS011;58439;51.046;13.692;2022-09-03T11:13:35;2.72;;;1.23;;
70818;SDS011;58439;51.046;13.692;2022-09-03T11:16:17;2.75;;;1.27;;
70818;SDS011;58439;51.046;13.692;2022-09-03T11:19:05;4.65;;;1.20;;
70818;SDS011;58439;51.046;13.692;2022-09-03T11:21:40;2.08;;;1.20;;
70818;SDS011;58439;51.046;13.692;2022-09-03T11:24:11;4.82;;;1.35;;
70818;SDS011;58439;51.046;13.692;2022-09-03T11:26:46;3.10;;;1.20;;
70818;SDS011;58439;51.046;13.692;2022-09-03T11:37:58;2.95;;;1.08;;
70818;SDS011;58439;51.046;13.692;2022-09-03T11:40:32;2.30;;;1.08;;
70818;SDS011;58439;51.046;13.692;2022-09-03T11:43:07;1.98;;;1.10;;
70818;SDS011;58439;51.046;13.692;2022-09-03T11:49:08;2.97;;;1.42;;
70818;SDS011;58439;51.046;13.692;2022-09-03T11:51:39;3.65;;;1.48;;
70818;SDS011;58439;51.046;13.692;2022-09-03T11:57:05;2.33;;;1.23;;
70818;SDS011;58439;51.046;13.692;2022-09-03T11:59:52;2.50;;;1.25;;
70818;SDS011;58439;51.046;13.692;2022-09-03T12:02:25;2.97;;;1.00;;
70818;SDS011;58439;51.046;13.692;2022-09-03T12:14:27;2.90;;;0.93;;
70818;SDS011;58439;51.046;13.692;2022-09-03T12:17:26;2.88;;;1.05;;
70818;SDS011;58439;51.046;13.692;2022-09-03T12:20:39;3.38;;;1.38;;
70818;SDS011;58439;51.046;13.692;2022-09-03T12:23:24;2.35;;;1.02;;
70818;SDS011;58439;51.046;13.692;2022-09-03T12:25:55;2.67;;;1.15;;
70818;SDS011;58439;51.046;13.692;2022-09-03T12:28:41;2.58;;;1.15;;
70818;SDS011;58439;51.046;13.692;2022-09-03T12:31:16;3.65;;;0.90;;
70818;SDS011;58439;51.046;13.692;2022-09-03T12:33:52;2.75;;;1.33;;
70818;SDS011;58439;51.046;13.692;2022-09-03T12:36:25;2.03;;;1.10;;
70818;SDS011;58439;51.046;13.692;2022-09-03T12:41:38;3.95;;;1.10;;
70818;SDS011;58439;51.046;13.692;2022-09-03T12:44:27;2.63;;;1.25;;
70818;SDS011;58439;51.046;13.692;2022-09-03T12:50:04;1.60;;;0.90;;
70818;SDS011;58439;51.046;13.692;2022-09-03T12:55:42;2.08;;;1.10;;
70818;SDS011;58439;51.046;13.692;2022-09-03T12:58:18;1.80;;;1.05;;
70818;SDS011;58439;51.046;13.692;2022-09-03T13:00:56;1.58;;;0.95;;
70818;SDS011;58439;51.046;13.692;2022-09-03T13:03:49;3.67;;;1.10;;
70818;SDS011;58439;51.046;13.692;2022-09-03T13:06:32;2.03;;;1.10;;
70818;SDS011;58439;51.046;13.692;2022-09-03T13:09:17;3.03;;;0.98;;
70818;SDS011;58439;51.046;13.692;2022-09-03T13:11:50;2.72;;;1.02;;
70818;SDS011;58439;51.046;13.692;2022-09-03T13:14:20;2.93;;;1.03;;
70818;SDS011;58439;51.046;13.692;2022-09-03T13:20:06;5.00;;;1.10;;
70818;SDS011;58439;51.046;13.692;2022-09-03T13:26:11;2.95;;;0.93;;
70818;SDS011;58439;51.046;13.692;2022-09-03T13:29:07;2.42;;;1.05;;
70818;SDS011;58439;51.046;13.692;2022-09-03T13:32:06;2.58;;;1.08;;
70818;SDS011;58439;51.046;13.692;2022-09-03T13:37:44;1.75;;;1.02;;
70818;SDS011;58439;51.046;13.692;2022-09-03T13:40:25;4.60;;;1.23;;
70818;SDS011;58439;51.046;13.692;2022-09-03T13:46:07;7.68;;;1.45;;
70818;SDS011;58439;51.046;13.692;2022-09-03T13:52:29;2.67;;;1.35;;
70818;SDS011;58439;51.046;13.692;2022-09-03T13:55:10;3.63;;;1.10;;
70818;SDS011;58439;51.046;13.692;2022-09-03T14:03:43;5.18;;;1.15;;
70818;SDS011;58439;51.046;13.692;2022-09-03T14:06:41;4.45;;;1.30;;
70818;SDS011;58439;51.046;13.692;2022-09-03T14:15:19;1.38;;;0.95;;
70818;SDS011;58439;51.046;13.692;2022-09-03T14:18:28;2.88;;;1.05;;
70818;SDS011;58439;51.046;13.692;2022-09-03T14:21:26;5.00;;;1.13;;
70818;SDS011;58439;51.046;13.692;2022-09-03T14:27:24;1.80;;;0.90;;
70818;SDS011;58439;51.046;13.692;2022-09-03T14:30:05;3.70;;;1.20;;
70818;SDS011;58439;51.046;13.692;2022-09-03T14:32:56;1.70;;;0.90;;
70818;SDS011;58439;51.046;13.692;2022-09-03T14:41:53;3.80;;;1.10;;
70818;SDS011;58439;51.046;13.692;2022-09-03T15:02:40;1.65;;;0.93;;
70818;SDS011;58439;51.046;13.692;2022-09-03T15:12:22;3.00;;;1.10;;
70818;SDS011;58439;51.046;13.692;2022-09-03T15:17:39;3.15;;;1.02;;
70818;SDS011;58439;51.046;13.692;2022-09-03T15:20:23;2.53;;;1.17;;
70818;SDS011;58439;51.046;13.692;2022-09-03T15:32:00;1.77;;;1.05;;
70818;SDS011;58439;51.046;13.692;2022-09-03T15:37:42;2.38;;;1.23;;
70818;SDS011;58439;51.046;13.692;2022-09-03T15:40:22;3.88;;;1.13;;
70818;SDS011;58439;51.046;13.692;2022-09-03T15:43:25;2.83;;;1.10;;
70818;SDS011;58439;51.046;13.692;2022-09-03T15:45:58;1.73;;;0.82;;
70818;SDS011;58439;51.046;13.692;2022-09-03T15:48:41;2.50;;;1.10;;
70818;SDS011;58439;51.046;13.692;2022-09-03T15:51:19;3.63;;;1.20;;
70818;SDS011;58439;51.046;13.692;2022-09-03T15:54:08;4.32;;;1.63;;
70818;SDS011;58439;51.046;13.692;2022-09-03T15:56:46;3.63;;;1.20;;
70818;SDS011;58439;51.046;13.692;2022-09-03T16:02:37;3.45;;;1.10;;
70818;SDS011;58439;51.046;13.692;2022-09-03T16:16:25;4.03;;;1.35;;
70818;SDS011;58439;51.046;13.692;2022-09-03T16:19:13;3.17;;;1.40;;
70818;SDS011;58439;51.046;13.692;2022-09-03T16:22:53;1.75;;;1.20;;
70818;SDS011;58439;51.046;13.692;2022-09-03T16:25:54;4.70;;;1.98;;
70818;SDS011;58439;51.046;13.692;2022-09-03T16:29:06;4.20;;;1.30;;
70818;SDS011;58439;51.046;13.692;2022-09-03T16:31:50;3.60;;;1.50;;
70818;SDS011;58439;51.046;13.692;2022-09-03T16:44:10;3.05;;;1.13;;
70818;SDS011;58439;51.046;13.692;2022-09-03T16:47:10;3.42;;;1.88;;
70818;SDS011;58439;51.046;13.692;2022-09-03T16:58:56;6.32;;;1.75;;
70818;SDS011;58439;51.046;13.692;2022-09-03T17:01:55;2.35;;;1.20;;
70818;SDS011;58439;51.046;13.692;2022-09-03T17:13:59;4.00;;;1.80;;
70818;SDS011;58439;51.046;13.692;2022-09-03T17:16:50;3.03;;;1.83;;
70818;SDS011;58439;51.046;13.692;2022-09-03T17:19:38;4.97;;;1.60;;
70818;SDS011;58439;51.046;13.692;2022-09-03T17:25:36;10.80;;;1.90;;
70818;SDS011;58439;51.046;13.692;2022-09-03T17:43:49;3.20;;;1.85;;
70818;SDS011;58439;51.046;13.692;2022-09-03T17:49:14;2.92;;;1.98;;
70818;SDS011;58439;51.046;13.692;2022-09-03T17:52:50;6.80;;;2.10;;
70818;SDS011;58439;51.046;13.692;2022-09-03T17:54:59;3.78;;;2.33;;
70818;SDS011;58439;51.046;13.692;2022-09-03T18:01:16;6.45;;;2.47;;
70818;SDS011;58439;51.046;13.692;2022-09-03T18:03:52;4.55;;;2.03;;
70818;SDS011;58439;51.046;13.692;2022-09-03T18:09:32;7.43;;;2.97;;
70818;SDS011;58439;51.046;13.692;2022-09-03T18:12:20;4.05;;;2.40;;
70818;SDS011;58439;51.046;13.692;2022-09-03T18:17:57;7.32;;;2.90;;
70818;SDS011;58439;51.046;13.692;2022-09-03T18:20:42;5.50;;;2.28;;
70818;SDS011;58439;51.046;13.692;2022-09-03T18:27:18;6.35;;;2.78;;
70818;SDS011;58439;51.046;13.692;2022-09-03T18:30:17;4.05;;;2.67;;
70818;SDS011;58439;51.046;13.692;2022-09-03T18:33:12;5.50;;;3.03;;
70818;SDS011;58439;51.046;13.692;2022-09-03T18:36:01;9.57;;;5.20;;
70818;SDS011;58439;51.046;13.692;2022-09-03T18:38:51;7.15;;;4.43;;
70818;SDS011;58439;51.046;13.692;2022-09-03T18:48:20;13.68;;;6.82;;
70818;SDS011;58439;51.046;13.692;2022-09-03T18:58:35;14.73;;;8.67;;
70818;SDS011;58439;51.046;13.692;2022-09-03T19:02:17;13.45;;;7.60;;
70818;SDS011;58439;51.046;13.692;2022-09-03T19:09:05;15.25;;;8.38;;
70818;SDS011;58439;51.046;13.692;2022-09-03T19:12:42;13.75;;;7.53;;
70818;SDS011;58439;51.046;13.692;2022-09-03T19:16:09;11.00;;;6.25;;
70818;SDS011;58439;51.046;13.692;2022-09-03T19:22:07;8.88;;;5.55;;
70818;SDS011;58439;51.046;13.692;2022-09-03T19:25:06;11.07;;;5.47;;
70818;SDS011;58439;51.046;13.692;2022-09-03T19:34:32;14.35;;;4.70;;
70818;SDS011;58439;51.046;13.692;2022-09-03T19:37:52;8.52;;;3.58;;
70818;SDS011;58439;51.046;13.692;2022-09-03T19:41:29;10.00;;;4.53;;
70818;SDS011;58439;51.046;13.692;2022-09-03T19:44:43;7.70;;;4.10;;
70818;SDS011;58439;51.046;13.692;2022-09-03T19:54:25;10.98;;;5.05;;
70818;SDS011;58439;51.046;13.692;2022-09-03T19:57:14;9.88;;;5.20;;
70818;SDS011;58439;51.046;13.692;2022-09-03T20:00:04;10.60;;;6.22;;
70818;SDS011;58439;51.046;13.692;2022-09-03T20:02:59;13.68;;;5.60;;
70818;SDS011;58439;51.046;13.692;2022-09-03T20:05:47;12.57;;;7.57;;
70818;SDS011;58439;51.046;13.692;2022-09-03T20:08:36;15.38;;;6.90;;
70818;SDS011;58439;51.046;13.692;2022-09-03T20:11:23;15.38;;;7.90;;
70818;SDS011;58439;51.046;13.692;2022-09-03T20:13:57;14.02;;;6.60;;
70818;SDS011;58439;51.046;13.692;2022-09-03T20:20:15;12.40;;;6.50;;
70818;SDS011;58439;51.046;13.692;2022-09-03T20:28:26;12.32;;;7.38;;
70818;SDS011;58439;51.046;13.692;2022-09-03T20:31:21;17.08;;;8.65;;
70818;SDS011;58439;51.046;13.692;2022-09-03T20:34:00;14.90;;;8.68;;
70818;SDS011;58439;51.046;13.692;2022-09-03T20:37:11;15.07;;;8.90;;
70818;SDS011;58439;51.046;13.692;2022-09-03T20:42:49;16.55;;;8.98;;
70818;SDS011;58439;51.046;13.692;2022-09-03T20:54:47;19.80;;;9.65;;
70818;SDS011;58439;51.046;13.692;2022-09-03T21:00:45;18.80;;;8.95;;
70818;SDS011;58439;51.046;13.692;2022-09-03T21:07:15;15.95;;;8.05;;
70818;SDS011;58439;51.046;13.692;2022-09-03T21:15:48;17.30;;;8.57;;
70818;SDS011;58439;51.046;13.692;2022-09-03T21:24:57;15.38;;;8.85;;
70818;SDS011;58439;51.046;13.692;2022-09-03T21:28:02;17.25;;;9.02;;
70818;SDS011;58439;51.046;13.692;2022-09-03T21:33:15;13.95;;;7.53;;
70818;SDS011;58439;51.046;13.692;2022-09-03T21:36:13;14.80;;;7.85;;
70818;SDS011;58439;51.046;13.692;2022-09-03T21:38:57;15.27;;;8.60;;
70818;SDS011;58439;51.046;13.692;2022-09-03T21:41:51;13.00;;;7.40;;
70818;SDS011;58439;51.046;13.692;2022-09-03T21:47:07;13.60;;;7.78;;
70818;SDS011;58439;51.046;13.692;2022-09-03T21:52:52;15.32;;;7.50;;
70818;SDS011;58439;51.046;13.692;2022-09-03T21:55:53;9.38;;;5.45;;
70818;SDS011;58439;51.046;13.692;2022-09-03T21:59:02;10.43;;;5.60;;
70818;SDS011;58439;51.046;13.692;2022-09-03T22:04:50;10.00;;;5.10;;
70818;SDS011;58439;51.046;13.692;2022-09-03T22:13:51;12.27;;;5.90;;